sensor_id;sensor_type;location;lat;lon;timestamp;P1;durP1;ratioP1;P2;durP2;ratioP2
3841;SDS011;1936;47.074;15.336;2022-08-24T00:01:16;2.00;;;1.80;;
3841;SDS011;1936;47.074;15.336;2022-08-24T00:03:23;6.93;;;1.40;;
3841;SDS011;1936;47.074;15.336;2022-08-24T00:05:35;2.53;;;1.70;;
3841;SDS011;1936;47.074;15.336;2022-08-24T00:07:42;1.63;;;1.40;;
3841;SDS011;1936;47.074;15.336;2022-08-24T00:09:48;3.00;;;1.77;;
3841;SDS011;1936;47.074;15.336;2022-08-24T00:11:54;2.07;;;1.40;;
3841;SDS011;1936;47.074;15.336;2022-08-24T00:13:59;1.93;;;1.73;;
3841;SDS011;1936;47.074;15.336;2022-08-24T00:16:04;6.03;;;1.77;;
3841;SDS011;1936;47.074;15.336;2022-08-24T00:18:13;2.67;;;1.73;;
3841;SDS011;1936;47.074;15.336;2022-08-24T00:20:17;4.40;;;2.20;;
3841;SDS011;1936;47.074;15.336;2022-08-24T00:22:21;3.23;;;1.53;;
3841;SDS011;1936;47.074;15.336;2022-08-24T00:24:24;4.83;;;1.97;;
3841;SDS011;1936;47.074;15.336;2022-08-24T00:26:32;1.90;;;1.50;;
3841;SDS011;1936;47.074;15.336;2022-08-24T00:28:37;2.07;;;1.67;;
3841;SDS011;1936;47.074;15.336;2022-08-24T00:30:43;2.90;;;1.90;;
3841;SDS011;1936;47.074;15.336;2022-08-24T00:32:51;2.33;;;1.60;;
3841;SDS011;1936;47.074;15.336;2022-08-24T00:34:56;2.20;;;1.83;;
3841;SDS011;1936;47.074;15.336;2022-08-24T00:37:02;3.93;;;2.17;;
3841;SDS011;1936;47.074;15.336;2022-08-24T00:39:07;2.70;;;1.60;;
3841;SDS011;1936;47.074;15.336;2022-08-24T00:41:14;3.07;;;1.87;;
3841;SDS011;1936;47.074;15.336;2022-08-24T00:43:19;2.20;;;1.77;;
3841;SDS011;1936;47.074;15.336;2022-08-24T00:45:26;2.97;;;1.43;;
3841;SDS011;1936;47.074;15.336;2022-08-24T00:47:33;1.50;;;1.40;;
3841;SDS011;1936;47.074;15.336;2022-08-24T00:49:51;2.57;;;1.77;;
3841;SDS011;1936;47.074;15.336;2022-08-24T00:52:03;2.73;;;2.00;;
3841;SDS011;1936;47.074;15.336;2022-08-24T00:54:12;1.93;;;1.50;;
3841;SDS011;1936;47.074;15.336;2022-08-24T00:56:20;3.17;;;1.73;;
3841;SDS011;1936;47.074;15.336;2022-08-24T00:58:29;4.17;;;2.30;;
3841;SDS011;1936;47.074;15.336;2022-08-24T01:00:41;3.53;;;1.70;;
3841;SDS011;1936;47.074;15.336;2022-08-24T01:02:52;4.03;;;2.13;;
3841;SDS011;1936;47.074;15.336;2022-08-24T01:05:04;1.50;;;1.33;;
3841;SDS011;1936;47.074;15.336;2022-08-24T01:07:13;5.63;;;2.07;;
3841;SDS011;1936;47.074;15.336;2022-08-24T01:09:21;3.90;;;2.10;;
3841;SDS011;1936;47.074;15.336;2022-08-24T01:11:25;5.07;;;2.17;;
3841;SDS011;1936;47.074;15.336;2022-08-24T01:13:34;3.63;;;1.80;;
3841;SDS011;1936;47.074;15.336;2022-08-24T01:15:39;2.87;;;2.10;;
3841;SDS011;1936;47.074;15.336;2022-08-24T01:17:44;3.60;;;2.40;;
3841;SDS011;1936;47.074;15.336;2022-08-24T01:20:08;3.10;;;2.80;;
3841;SDS011;1936;47.074;15.336;2022-08-24T01:22:24;4.77;;;2.30;;
3841;SDS011;1936;47.074;15.336;2022-08-24T01:25:01;4.37;;;2.23;;
3841;SDS011;1936;47.074;15.336;2022-08-24T01:27:07;3.43;;;2.30;;
3841;SDS011;1936;47.074;15.336;2022-08-24T01:29:14;3.50;;;1.97;;
3841;SDS011;1936;47.074;15.336;2022-08-24T01:31:24;3.03;;;2.30;;
3841;SDS011;1936;47.074;15.336;2022-08-24T01:33:30;2.33;;;2.13;;
3841;SDS011;1936;47.074;15.336;2022-08-24T01:35:36;2.83;;;2.23;;
3841;SDS011;1936;47.074;15.336;2022-08-24T01:37:43;2.50;;;2.30;;
3841;SDS011;1936;47.074;15.336;2022-08-24T01:39:48;5.07;;;2.43;;
3841;SDS011;1936;47.074;15.336;2022-08-24T01:42:12;3.33;;;2.40;;
3841;SDS011;1936;47.074;15.336;2022-08-24T01:44:17;6.00;;;2.00;;
3841;SDS011;1936;47.074;15.336;2022-08-24T01:46:23;2.80;;;2.10;;
3841;SDS011;1936;47.074;15.336;2022-08-24T01:48:27;2.60;;;2.03;;
3841;SDS011;1936;47.074;15.336;2022-08-24T01:50:32;2.30;;;1.97;;
3841;SDS011;1936;47.074;15.336;2022-08-24T01:52:36;4.60;;;2.40;;
3841;SDS011;1936;47.074;15.336;2022-08-24T01:55:04;4.93;;;2.07;;
3841;SDS011;1936;47.074;15.336;2022-08-24T01:57:14;2.10;;;2.00;;
3841;SDS011;1936;47.074;15.336;2022-08-24T01:59:18;2.40;;;2.20;;
3841;SDS011;1936;47.074;15.336;2022-08-24T02:01:26;3.20;;;2.00;;
3841;SDS011;1936;47.074;15.336;2022-08-24T02:03:32;5.20;;;2.40;;
3841;SDS011;1936;47.074;15.336;2022-08-24T02:05:37;5.20;;;2.07;;
3841;SDS011;1936;47.074;15.336;2022-08-24T02:07:43;3.10;;;2.90;;
3841;SDS011;1936;47.074;15.336;2022-08-24T02:09:47;3.93;;;3.53;;
3841;SDS011;1936;47.074;15.336;2022-08-24T02:11:51;10.57;;;3.03;;
3841;SDS011;1936;47.074;15.336;2022-08-24T02:14:01;3.50;;;2.23;;
3841;SDS011;1936;47.074;15.336;2022-08-24T02:16:08;10.43;;;2.73;;
3841;SDS011;1936;47.074;15.336;2022-08-24T02:18:15;3.70;;;2.10;;
3841;SDS011;1936;47.074;15.336;2022-08-24T02:20:20;9.20;;;2.60;;
3841;SDS011;1936;47.074;15.336;2022-08-24T02:22:24;5.50;;;2.43;;
3841;SDS011;1936;47.074;15.336;2022-08-24T02:24:31;2.97;;;2.07;;
3841;SDS011;1936;47.074;15.336;2022-08-24T02:26:35;3.50;;;2.40;;
3841;SDS011;1936;47.074;15.336;2022-08-24T02:28:41;2.50;;;2.30;;
3841;SDS011;1936;47.074;15.336;2022-08-24T02:30:46;2.40;;;2.20;;
3841;SDS011;1936;47.074;15.336;2022-08-24T02:32:51;2.70;;;2.10;;
3841;SDS011;1936;47.074;15.336;2022-08-24T02:34:55;4.07;;;2.43;;
3841;SDS011;1936;47.074;15.336;2022-08-24T02:36:58;2.87;;;1.90;;
3841;SDS011;1936;47.074;15.336;2022-08-24T02:39:05;1.90;;;1.80;;
3841;SDS011;1936;47.074;15.336;2022-08-24T02:41:14;2.70;;;2.50;;
3841;SDS011;1936;47.074;15.336;2022-08-24T02:43:18;5.53;;;2.10;;
3841;SDS011;1936;47.074;15.336;2022-08-24T02:45:25;3.90;;;2.10;;
3841;SDS011;1936;47.074;15.336;2022-08-24T02:47:36;2.90;;;2.30;;
3841;SDS011;1936;47.074;15.336;2022-08-24T02:49:42;2.93;;;2.73;;
3841;SDS011;1936;47.074;15.336;2022-08-24T02:51:46;2.53;;;2.33;;
3841;SDS011;1936;47.074;15.336;2022-08-24T02:53:52;7.00;;;2.33;;
3841;SDS011;1936;47.074;15.336;2022-08-24T02:55:56;4.43;;;2.67;;
3841;SDS011;1936;47.074;15.336;2022-08-24T02:58:03;4.20;;;2.67;;
3841;SDS011;1936;47.074;15.336;2022-08-24T03:00:08;3.47;;;2.60;;
3841;SDS011;1936;47.074;15.336;2022-08-24T03:02:14;3.70;;;2.30;;
3841;SDS011;1936;47.074;15.336;2022-08-24T03:04:21;2.00;;;1.80;;
3841;SDS011;1936;47.074;15.336;2022-08-24T03:06:25;4.10;;;1.90;;
3841;SDS011;1936;47.074;15.336;2022-08-24T03:08:32;4.90;;;2.13;;
3841;SDS011;1936;47.074;15.336;2022-08-24T03:10:37;7.10;;;1.83;;
3841;SDS011;1936;47.074;15.336;2022-08-24T03:12:43;2.60;;;2.30;;
3841;SDS011;1936;47.074;15.336;2022-08-24T03:14:47;5.37;;;2.40;;
3841;SDS011;1936;47.074;15.336;2022-08-24T03:16:53;6.80;;;2.00;;
3841;SDS011;1936;47.074;15.336;2022-08-24T03:18:57;4.40;;;2.40;;
3841;SDS011;1936;47.074;15.336;2022-08-24T03:21:06;2.30;;;1.57;;
3841;SDS011;1936;47.074;15.336;2022-08-24T03:23:12;2.47;;;2.27;;
3841;SDS011;1936;47.074;15.336;2022-08-24T03:25:16;3.50;;;2.03;;
3841;SDS011;1936;47.074;15.336;2022-08-24T03:27:25;2.17;;;1.93;;
3841;SDS011;1936;47.074;15.336;2022-08-24T03:29:28;2.40;;;2.20;;
3841;SDS011;1936;47.074;15.336;2022-08-24T03:31:36;5.20;;;2.70;;
3841;SDS011;1936;47.074;15.336;2022-08-24T03:33:40;3.30;;;1.77;;
3841;SDS011;1936;47.074;15.336;2022-08-24T03:35:44;3.93;;;2.00;;
3841;SDS011;1936;47.074;15.336;2022-08-24T03:37:52;3.50;;;1.57;;
3841;SDS011;1936;47.074;15.336;2022-08-24T03:39:58;6.73;;;2.40;;
3841;SDS011;1936;47.074;15.336;2022-08-24T03:42:06;2.47;;;2.10;;
3841;SDS011;1936;47.074;15.336;2022-08-24T03:44:10;2.93;;;2.10;;
3841;SDS011;1936;47.074;15.336;2022-08-24T03:46:15;6.13;;;2.30;;
3841;SDS011;1936;47.074;15.336;2022-08-24T03:48:25;3.80;;;2.90;;
3841;SDS011;1936;47.074;15.336;2022-08-24T03:50:32;3.30;;;2.10;;
3841;SDS011;1936;47.074;15.336;2022-08-24T03:52:35;3.80;;;2.40;;
3841;SDS011;1936;47.074;15.336;2022-08-24T03:54:45;2.20;;;1.93;;
3841;SDS011;1936;47.074;15.336;2022-08-24T03:56:50;4.30;;;2.13;;
3841;SDS011;1936;47.074;15.336;2022-08-24T03:58:54;1.63;;;1.53;;
3841;SDS011;1936;47.074;15.336;2022-08-24T04:00:58;6.77;;;1.97;;
3841;SDS011;1936;47.074;15.336;2022-08-24T04:03:05;2.93;;;2.20;;
3841;SDS011;1936;47.074;15.336;2022-08-24T04:05:12;2.67;;;2.37;;
3841;SDS011;1936;47.074;15.336;2022-08-24T04:07:16;3.90;;;2.43;;
3841;SDS011;1936;47.074;15.336;2022-08-24T04:09:23;2.37;;;1.90;;
3841;SDS011;1936;47.074;15.336;2022-08-24T04:11:35;2.93;;;2.37;;
3841;SDS011;1936;47.074;15.336;2022-08-24T04:13:51;2.50;;;1.90;;
3841;SDS011;1936;47.074;15.336;2022-08-24T04:15:57;5.77;;;1.90;;
3841;SDS011;1936;47.074;15.336;2022-08-24T04:18:06;2.60;;;1.50;;
3841;SDS011;1936;47.074;15.336;2022-08-24T04:20:13;4.10;;;1.93;;
3841;SDS011;1936;47.074;15.336;2022-08-24T04:22:16;2.50;;;2.30;;
3841;SDS011;1936;47.074;15.336;2022-08-24T04:24:23;2.90;;;2.10;;
3841;SDS011;1936;47.074;15.336;2022-08-24T04:26:29;4.23;;;2.00;;
3841;SDS011;1936;47.074;15.336;2022-08-24T04:28:51;1.73;;;1.63;;
3841;SDS011;1936;47.074;15.336;2022-08-24T04:30:56;2.37;;;2.17;;
3841;SDS011;1936;47.074;15.336;2022-08-24T04:33:04;4.53;;;1.80;;
3841;SDS011;1936;47.074;15.336;2022-08-24T04:35:09;4.07;;;2.40;;
3841;SDS011;1936;47.074;15.336;2022-08-24T04:37:15;5.10;;;2.43;;
3841;SDS011;1936;47.074;15.336;2022-08-24T04:39:28;5.60;;;1.67;;
3841;SDS011;1936;47.074;15.336;2022-08-24T04:41:46;3.07;;;2.77;;
3841;SDS011;1936;47.074;15.336;2022-08-24T04:43:52;4.03;;;1.93;;
3841;SDS011;1936;47.074;15.336;2022-08-24T04:45:56;2.20;;;2.00;;
3841;SDS011;1936;47.074;15.336;2022-08-24T04:48:03;2.20;;;2.00;;
3841;SDS011;1936;47.074;15.336;2022-08-24T04:50:07;2.30;;;1.87;;
3841;SDS011;1936;47.074;15.336;2022-08-24T04:52:12;2.27;;;1.97;;
3841;SDS011;1936;47.074;15.336;2022-08-24T04:54:17;5.90;;;2.70;;
3841;SDS011;1936;47.074;15.336;2022-08-24T04:56:23;4.10;;;1.73;;
3841;SDS011;1936;47.074;15.336;2022-08-24T04:58:28;2.30;;;1.80;;
3841;SDS011;1936;47.074;15.336;2022-08-24T05:00:34;3.37;;;2.33;;
3841;SDS011;1936;47.074;15.336;2022-08-24T05:02:38;2.33;;;1.50;;
3841;SDS011;1936;47.074;15.336;2022-08-24T05:04:47;3.50;;;2.33;;
3841;SDS011;1936;47.074;15.336;2022-08-24T05:06:53;2.30;;;2.00;;
3841;SDS011;1936;47.074;15.336;2022-08-24T05:08:58;3.43;;;1.90;;
3841;SDS011;1936;47.074;15.336;2022-08-24T05:11:05;2.80;;;1.60;;
3841;SDS011;1936;47.074;15.336;2022-08-24T05:13:09;2.00;;;1.63;;
3841;SDS011;1936;47.074;15.336;2022-08-24T05:15:14;1.80;;;1.70;;
3841;SDS011;1936;47.074;15.336;2022-08-24T05:17:25;1.87;;;1.70;;
3841;SDS011;1936;47.074;15.336;2022-08-24T05:19:31;2.27;;;1.80;;
3841;SDS011;1936;47.074;15.336;2022-08-24T05:21:34;3.30;;;2.20;;
3841;SDS011;1936;47.074;15.336;2022-08-24T05:23:42;3.73;;;1.80;;
3841;SDS011;1936;47.074;15.336;2022-08-24T05:25:46;2.60;;;1.60;;
3841;SDS011;1936;47.074;15.336;2022-08-24T05:27:52;1.70;;;1.60;;
3841;SDS011;1936;47.074;15.336;2022-08-24T05:30:00;2.60;;;1.70;;
3841;SDS011;1936;47.074;15.336;2022-08-24T05:32:04;4.30;;;1.83;;
3841;SDS011;1936;47.074;15.336;2022-08-24T05:34:10;2.27;;;1.60;;
3841;SDS011;1936;47.074;15.336;2022-08-24T05:36:15;1.77;;;1.57;;
3841;SDS011;1936;47.074;15.336;2022-08-24T05:38:24;1.80;;;1.60;;
3841;SDS011;1936;47.074;15.336;2022-08-24T05:40:28;4.23;;;1.47;;
3841;SDS011;1936;47.074;15.336;2022-08-24T05:42:34;1.43;;;1.30;;
3841;SDS011;1936;47.074;15.336;2022-08-24T05:44:38;1.80;;;1.47;;
3841;SDS011;1936;47.074;15.336;2022-08-24T05:46:43;1.93;;;1.73;;
3841;SDS011;1936;47.074;15.336;2022-08-24T05:48:50;5.57;;;1.90;;
3841;SDS011;1936;47.074;15.336;2022-08-24T05:50:55;2.13;;;1.67;;
3841;SDS011;1936;47.074;15.336;2022-08-24T05:53:03;2.37;;;1.80;;
3841;SDS011;1936;47.074;15.336;2022-08-24T05:55:07;2.60;;;1.57;;
3841;SDS011;1936;47.074;15.336;2022-08-24T05:57:13;1.30;;;1.20;;
3841;SDS011;1936;47.074;15.336;2022-08-24T05:59:17;1.77;;;1.17;;
3841;SDS011;1936;47.074;15.336;2022-08-24T06:01:24;1.33;;;1.23;;
3841;SDS011;1936;47.074;15.336;2022-08-24T06:03:31;1.73;;;1.53;;
3841;SDS011;1936;47.074;15.336;2022-08-24T06:05:37;1.67;;;1.57;;
3841;SDS011;1936;47.074;15.336;2022-08-24T06:07:45;1.93;;;1.83;;
3841;SDS011;1936;47.074;15.336;2022-08-24T06:09:51;2.30;;;1.73;;
3841;SDS011;1936;47.074;15.336;2022-08-24T06:11:55;1.50;;;1.37;;
3841;SDS011;1936;47.074;15.336;2022-08-24T06:14:04;2.30;;;1.80;;
3841;SDS011;1936;47.074;15.336;2022-08-24T06:16:13;1.53;;;1.13;;
3841;SDS011;1936;47.074;15.336;2022-08-24T06:18:22;2.73;;;1.33;;
3841;SDS011;1936;47.074;15.336;2022-08-24T06:20:27;2.20;;;1.30;;
3841;SDS011;1936;47.074;15.336;2022-08-24T06:22:33;1.87;;;1.40;;
3841;SDS011;1936;47.074;15.336;2022-08-24T06:24:39;5.23;;;1.77;;
3841;SDS011;1936;47.074;15.336;2022-08-24T06:27:03;2.60;;;1.30;;
3841;SDS011;1936;47.074;15.336;2022-08-24T06:29:26;1.77;;;1.30;;
3841;SDS011;1936;47.074;15.336;2022-08-24T06:31:33;1.77;;;1.00;;
3841;SDS011;1936;47.074;15.336;2022-08-24T06:33:40;1.27;;;1.03;;
3841;SDS011;1936;47.074;15.336;2022-08-24T06:35:44;1.60;;;1.30;;
3841;SDS011;1936;47.074;15.336;2022-08-24T06:37:50;1.53;;;1.33;;
3841;SDS011;1936;47.074;15.336;2022-08-24T06:39:56;2.67;;;1.60;;
3841;SDS011;1936;47.074;15.336;2022-08-24T06:42:01;2.40;;;1.50;;
3841;SDS011;1936;47.074;15.336;2022-08-24T06:44:05;1.53;;;1.30;;
3841;SDS011;1936;47.074;15.336;2022-08-24T06:46:11;6.63;;;1.13;;
3841;SDS011;1936;47.074;15.336;2022-08-24T06:48:16;4.43;;;1.70;;
3841;SDS011;1936;47.074;15.336;2022-08-24T06:50:23;1.27;;;1.10;;
3841;SDS011;1936;47.074;15.336;2022-08-24T06:52:27;2.10;;;1.50;;
3841;SDS011;1936;47.074;15.336;2022-08-24T06:54:34;2.13;;;1.43;;
3841;SDS011;1936;47.074;15.336;2022-08-24T06:56:43;2.23;;;1.67;;
3841;SDS011;1936;47.074;15.336;2022-08-24T06:58:47;1.60;;;1.50;;
3841;SDS011;1936;47.074;15.336;2022-08-24T07:00:54;1.80;;;1.67;;
3841;SDS011;1936;47.074;15.336;2022-08-24T07:03:01;1.17;;;1.07;;
3841;SDS011;1936;47.074;15.336;2022-08-24T07:05:05;1.67;;;1.03;;
3841;SDS011;1936;47.074;15.336;2022-08-24T07:07:20;4.30;;;1.50;;
3841;SDS011;1936;47.074;15.336;2022-08-24T07:09:25;1.40;;;1.27;;
3841;SDS011;1936;47.074;15.336;2022-08-24T07:11:29;2.70;;;1.63;;
3841;SDS011;1936;47.074;15.336;2022-08-24T07:13:37;1.43;;;1.33;;
3841;SDS011;1936;47.074;15.336;2022-08-24T07:15:44;1.37;;;1.20;;
3841;SDS011;1936;47.074;15.336;2022-08-24T07:17:47;2.73;;;1.40;;
3841;SDS011;1936;47.074;15.336;2022-08-24T07:19:52;1.77;;;0.97;;
3841;SDS011;1936;47.074;15.336;2022-08-24T07:21:55;2.73;;;1.13;;
3841;SDS011;1936;47.074;15.336;2022-08-24T07:24:06;2.00;;;1.17;;
3841;SDS011;1936;47.074;15.336;2022-08-24T07:26:19;1.90;;;1.70;;
3841;SDS011;1936;47.074;15.336;2022-08-24T07:28:24;1.43;;;1.20;;
3841;SDS011;1936;47.074;15.336;2022-08-24T07:30:33;1.30;;;0.87;;
3841;SDS011;1936;47.074;15.336;2022-08-24T07:32:37;1.50;;;1.27;;
3841;SDS011;1936;47.074;15.336;2022-08-24T07:34:42;1.30;;;0.93;;
3841;SDS011;1936;47.074;15.336;2022-08-24T07:36:46;2.80;;;1.13;;
3841;SDS011;1936;47.074;15.336;2022-08-24T07:38:54;1.30;;;1.20;;
3841;SDS011;1936;47.074;15.336;2022-08-24T07:40:58;1.73;;;1.20;;
3841;SDS011;1936;47.074;15.336;2022-08-24T07:43:25;3.40;;;1.33;;
3841;SDS011;1936;47.074;15.336;2022-08-24T07:45:29;2.10;;;1.33;;
3841;SDS011;1936;47.074;15.336;2022-08-24T07:47:46;2.13;;;1.17;;
3841;SDS011;1936;47.074;15.336;2022-08-24T07:49:58;1.40;;;1.10;;
3841;SDS011;1936;47.074;15.336;2022-08-24T07:52:04;1.40;;;1.10;;
3841;SDS011;1936;47.074;15.336;2022-08-24T07:54:15;1.23;;;0.87;;
3841;SDS011;1936;47.074;15.336;2022-08-24T07:56:21;1.10;;;0.90;;
3841;SDS011;1936;47.074;15.336;2022-08-24T07:58:32;2.13;;;1.00;;
3841;SDS011;1936;47.074;15.336;2022-08-24T08:00:46;1.97;;;0.97;;
3841;SDS011;1936;47.074;15.336;2022-08-24T08:03:03;3.00;;;1.47;;
3841;SDS011;1936;47.074;15.336;2022-08-24T08:05:07;1.20;;;1.07;;
3841;SDS011;1936;47.074;15.336;2022-08-24T08:07:11;1.50;;;1.07;;
3841;SDS011;1936;47.074;15.336;2022-08-24T08:09:18;2.13;;;1.00;;
3841;SDS011;1936;47.074;15.336;2022-08-24T08:11:23;1.00;;;0.87;;
3841;SDS011;1936;47.074;15.336;2022-08-24T08:13:27;2.33;;;1.00;;
3841;SDS011;1936;47.074;15.336;2022-08-24T08:15:31;2.50;;;1.10;;
3841;SDS011;1936;47.074;15.336;2022-08-24T08:17:36;1.50;;;1.20;;
3841;SDS011;1936;47.074;15.336;2022-08-24T08:19:41;1.43;;;1.00;;
3841;SDS011;1936;47.074;15.336;2022-08-24T08:21:46;1.37;;;0.87;;
3841;SDS011;1936;47.074;15.336;2022-08-24T08:24:08;1.73;;;1.10;;
3841;SDS011;1936;47.074;15.336;2022-08-24T08:26:21;2.50;;;1.30;;
3841;SDS011;1936;47.074;15.336;2022-08-24T08:28:24;2.50;;;1.10;;
3841;SDS011;1936;47.074;15.336;2022-08-24T08:30:36;1.23;;;1.13;;
3841;SDS011;1936;47.074;15.336;2022-08-24T08:32:43;2.35;;;1.30;;
3841;SDS011;1936;47.074;15.336;2022-08-24T08:34:47;1.03;;;0.90;;
3841;SDS011;1936;47.074;15.336;2022-08-24T08:36:55;1.63;;;0.90;;
3841;SDS011;1936;47.074;15.336;2022-08-24T08:39:00;1.63;;;1.10;;
3841;SDS011;1936;47.074;15.336;2022-08-24T08:43:31;1.10;;;0.83;;
3841;SDS011;1936;47.074;15.336;2022-08-24T08:45:46;2.90;;;1.07;;
3841;SDS011;1936;47.074;15.336;2022-08-24T08:48:16;2.23;;;0.73;;
3841;SDS011;1936;47.074;15.336;2022-08-24T08:50:56;1.60;;;1.20;;
3841;SDS011;1936;47.074;15.336;2022-08-24T08:53:27;2.90;;;1.17;;
3841;SDS011;1936;47.074;15.336;2022-08-24T08:55:52;2.13;;;1.07;;
3841;SDS011;1936;47.074;15.336;2022-08-24T08:58:09;3.03;;;0.90;;
3841;SDS011;1936;47.074;15.336;2022-08-24T09:00:35;2.90;;;1.27;;
3841;SDS011;1936;47.074;15.336;2022-08-24T09:03:00;3.37;;;1.23;;
3841;SDS011;1936;47.074;15.336;2022-08-24T09:05:38;1.57;;;1.10;;
3841;SDS011;1936;47.074;15.336;2022-08-24T09:07:58;1.20;;;1.00;;
3841;SDS011;1936;47.074;15.336;2022-08-24T09:10:16;3.43;;;0.90;;
3841;SDS011;1936;47.074;15.336;2022-08-24T09:12:36;1.30;;;1.13;;
3841;SDS011;1936;47.074;15.336;2022-08-24T09:15:09;2.63;;;1.33;;
3841;SDS011;1936;47.074;15.336;2022-08-24T09:17:29;1.43;;;1.00;;
3841;SDS011;1936;47.074;15.336;2022-08-24T09:19:49;2.20;;;0.97;;
3841;SDS011;1936;47.074;15.336;2022-08-24T09:22:10;2.07;;;1.20;;
3841;SDS011;1936;47.074;15.336;2022-08-24T09:24:22;2.00;;;1.30;;
3841;SDS011;1936;47.074;15.336;2022-08-24T09:26:52;1.37;;;0.83;;
3841;SDS011;1936;47.074;15.336;2022-08-24T09:29:03;0.90;;;0.70;;
3841;SDS011;1936;47.074;15.336;2022-08-24T09:33:40;1.90;;;0.80;;
3841;SDS011;1936;47.074;15.336;2022-08-24T09:36:00;2.03;;;1.10;;
3841;SDS011;1936;47.074;15.336;2022-08-24T09:38:14;1.57;;;0.77;;
3841;SDS011;1936;47.074;15.336;2022-08-24T09:42:58;1.20;;;0.90;;
3841;SDS011;1936;47.074;15.336;2022-08-24T09:50:25;0.77;;;0.77;;
3841;SDS011;1936;47.074;15.336;2022-08-24T09:53:04;2.40;;;0.70;;
3841;SDS011;1936;47.074;15.336;2022-08-24T09:58:17;1.70;;;0.80;;
3841;SDS011;1936;47.074;15.336;2022-08-24T10:00:36;2.40;;;0.87;;
3841;SDS011;1936;47.074;15.336;2022-08-24T10:03:00;0.73;;;0.70;;
3841;SDS011;1936;47.074;15.336;2022-08-24T10:05:08;0.90;;;0.80;;
3841;SDS011;1936;47.074;15.336;2022-08-24T10:07:26;0.70;;;0.60;;
3841;SDS011;1936;47.074;15.336;2022-08-24T10:09:56;0.90;;;0.70;;
3841;SDS011;1936;47.074;15.336;2022-08-24T10:12:20;0.80;;;0.70;;
3841;SDS011;1936;47.074;15.336;2022-08-24T10:14:40;0.90;;;0.80;;
3841;SDS011;1936;47.074;15.336;2022-08-24T10:16:52;0.70;;;0.53;;
3841;SDS011;1936;47.074;15.336;2022-08-24T10:19:16;1.80;;;0.90;;
3841;SDS011;1936;47.074;15.336;2022-08-24T10:21:42;1.50;;;0.73;;
3841;SDS011;1936;47.074;15.336;2022-08-24T10:23:55;6.20;;;1.13;;
3841;SDS011;1936;47.074;15.336;2022-08-24T10:26:12;3.47;;;1.20;;
3841;SDS011;1936;47.074;15.336;2022-08-24T10:28:38;0.97;;;0.90;;
3841;SDS011;1936;47.074;15.336;2022-08-24T10:30:54;1.33;;;0.90;;
3841;SDS011;1936;47.074;15.336;2022-08-24T10:33:05;0.93;;;0.80;;
3841;SDS011;1936;47.074;15.336;2022-08-24T10:35:18;0.90;;;0.70;;
3841;SDS011;1936;47.074;15.336;2022-08-24T10:40:20;1.17;;;1.07;;
3841;SDS011;1936;47.074;15.336;2022-08-24T10:42:57;1.00;;;0.80;;
3841;SDS011;1936;47.074;15.336;2022-08-24T10:48:40;0.80;;;0.73;;
3841;SDS011;1936;47.074;15.336;2022-08-24T10:51:18;1.33;;;1.00;;
3841;SDS011;1936;47.074;15.336;2022-08-24T10:53:37;1.03;;;0.70;;
3841;SDS011;1936;47.074;15.336;2022-08-24T10:55:45;1.10;;;0.80;;
3841;SDS011;1936;47.074;15.336;2022-08-24T10:58:10;2.50;;;1.07;;
3841;SDS011;1936;47.074;15.336;2022-08-24T11:00:16;1.20;;;1.10;;
3841;SDS011;1936;47.074;15.336;2022-08-24T11:02:28;1.10;;;0.90;;
3841;SDS011;1936;47.074;15.336;2022-08-24T11:04:34;1.43;;;1.00;;
3841;SDS011;1936;47.074;15.336;2022-08-24T11:06:41;1.20;;;0.90;;
3841;SDS011;1936;47.074;15.336;2022-08-24T11:08:53;1.77;;;1.00;;
3841;SDS011;1936;47.074;15.336;2022-08-24T11:11:05;1.20;;;1.10;;
3841;SDS011;1936;47.074;15.336;2022-08-24T11:13:19;1.33;;;1.07;;
3841;SDS011;1936;47.074;15.336;2022-08-24T11:15:25;3.20;;;0.90;;
3841;SDS011;1936;47.074;15.336;2022-08-24T11:17:31;6.83;;;1.00;;
3841;SDS011;1936;47.074;15.336;2022-08-24T11:19:36;1.00;;;0.90;;
3841;SDS011;1936;47.074;15.336;2022-08-24T11:21:41;0.87;;;0.87;;
3841;SDS011;1936;47.074;15.336;2022-08-24T11:23:50;1.37;;;0.80;;
3841;SDS011;1936;47.074;15.336;2022-08-24T11:25:56;1.23;;;1.13;;
3841;SDS011;1936;47.074;15.336;2022-08-24T11:28:06;1.23;;;1.10;;
3841;SDS011;1936;47.074;15.336;2022-08-24T11:30:22;1.30;;;0.90;;
3841;SDS011;1936;47.074;15.336;2022-08-24T11:32:29;1.20;;;1.10;;
3841;SDS011;1936;47.074;15.336;2022-08-24T11:34:46;1.50;;;1.40;;
3841;SDS011;1936;47.074;15.336;2022-08-24T11:36:51;2.93;;;1.40;;
3841;SDS011;1936;47.074;15.336;2022-08-24T11:39:08;1.30;;;1.20;;
3841;SDS011;1936;47.074;15.336;2022-08-24T11:41:20;1.27;;;1.17;;
3841;SDS011;1936;47.074;15.336;2022-08-24T11:43:32;3.03;;;1.40;;
3841;SDS011;1936;47.074;15.336;2022-08-24T11:45:56;1.40;;;1.17;;
3841;SDS011;1936;47.074;15.336;2022-08-24T11:48:13;4.50;;;1.43;;
3841;SDS011;1936;47.074;15.336;2022-08-24T11:50:32;1.27;;;1.10;;
3841;SDS011;1936;47.074;15.336;2022-08-24T11:52:45;2.83;;;1.27;;
3841;SDS011;1936;47.074;15.336;2022-08-24T11:54:59;1.40;;;1.30;;
3841;SDS011;1936;47.074;15.336;2022-08-24T11:57:09;2.73;;;1.37;;
3841;SDS011;1936;47.074;15.336;2022-08-24T12:01:44;0.80;;;0.70;;
3841;SDS011;1936;47.074;15.336;2022-08-24T12:04:01;1.70;;;1.60;;
3841;SDS011;1936;47.074;15.336;2022-08-24T12:06:13;1.37;;;1.23;;
3841;SDS011;1936;47.074;15.336;2022-08-24T12:08:33;1.17;;;1.07;;
3841;SDS011;1936;47.074;15.336;2022-08-24T12:10:44;1.77;;;1.20;;
3841;SDS011;1936;47.074;15.336;2022-08-24T12:13:00;2.00;;;1.33;;
3841;SDS011;1936;47.074;15.336;2022-08-24T12:15:09;2.47;;;1.77;;
3841;SDS011;1936;47.074;15.336;2022-08-24T12:17:23;4.37;;;1.67;;
3841;SDS011;1936;47.074;15.336;2022-08-24T12:19:35;3.43;;;1.60;;
3841;SDS011;1936;47.074;15.336;2022-08-24T12:21:44;2.53;;;1.80;;
3841;SDS011;1936;47.074;15.336;2022-08-24T12:23:52;3.40;;;1.37;;
3841;SDS011;1936;47.074;15.336;2022-08-24T12:26:02;1.73;;;1.63;;
3841;SDS011;1936;47.074;15.336;2022-08-24T12:28:10;1.67;;;1.57;;
3841;SDS011;1936;47.074;15.336;2022-08-24T12:30:17;1.53;;;1.43;;
3841;SDS011;1936;47.074;15.336;2022-08-24T12:32:23;1.90;;;1.80;;
3841;SDS011;1936;47.074;15.336;2022-08-24T12:34:43;2.17;;;1.50;;
3841;SDS011;1936;47.074;15.336;2022-08-24T12:37:00;6.00;;;1.53;;
3841;SDS011;1936;47.074;15.336;2022-08-24T12:39:17;4.80;;;1.80;;
3841;SDS011;1936;47.074;15.336;2022-08-24T12:41:25;1.73;;;1.60;;
3841;SDS011;1936;47.074;15.336;2022-08-24T12:43:35;3.43;;;1.50;;
3841;SDS011;1936;47.074;15.336;2022-08-24T12:45:44;5.10;;;1.80;;
3841;SDS011;1936;47.074;15.336;2022-08-24T12:47:51;5.27;;;1.73;;
3841;SDS011;1936;47.074;15.336;2022-08-24T12:50:01;1.77;;;1.63;;
3841;SDS011;1936;47.074;15.336;2022-08-24T12:52:12;2.93;;;1.80;;
3841;SDS011;1936;47.074;15.336;2022-08-24T12:54:24;3.77;;;1.80;;
3841;SDS011;1936;47.074;15.336;2022-08-24T12:56:41;1.80;;;1.70;;
3841;SDS011;1936;47.074;15.336;2022-08-24T12:58:56;1.83;;;1.73;;
3841;SDS011;1936;47.074;15.336;2022-08-24T13:01:06;1.63;;;1.53;;
3841;SDS011;1936;47.074;15.336;2022-08-24T13:03:23;1.73;;;1.63;;
3841;SDS011;1936;47.074;15.336;2022-08-24T13:05:37;1.80;;;1.43;;
3841;SDS011;1936;47.074;15.336;2022-08-24T13:07:44;2.70;;;1.80;;
3841;SDS011;1936;47.074;15.336;2022-08-24T13:10:01;1.70;;;1.60;;
3841;SDS011;1936;47.074;15.336;2022-08-24T13:14:51;1.90;;;1.70;;
3841;SDS011;1936;47.074;15.336;2022-08-24T13:17:08;2.50;;;1.43;;
3841;SDS011;1936;47.074;15.336;2022-08-24T13:19:17;2.13;;;1.80;;
3841;SDS011;1936;47.074;15.336;2022-08-24T13:21:39;3.33;;;1.80;;
3841;SDS011;1936;47.074;15.336;2022-08-24T13:23:45;2.50;;;1.70;;
3841;SDS011;1936;47.074;15.336;2022-08-24T13:26:17;2.43;;;2.23;;
3841;SDS011;1936;47.074;15.336;2022-08-24T13:28:36;1.83;;;1.73;;
3841;SDS011;1936;47.074;15.336;2022-08-24T13:33:24;2.30;;;2.10;;
3841;SDS011;1936;47.074;15.336;2022-08-24T13:35:47;2.60;;;1.93;;
3841;SDS011;1936;47.074;15.336;2022-08-24T13:40:43;1.73;;;1.63;;
3841;SDS011;1936;47.074;15.336;2022-08-24T13:42:55;2.40;;;2.17;;
3841;SDS011;1936;47.074;15.336;2022-08-24T13:45:29;4.63;;;2.07;;
3841;SDS011;1936;47.074;15.336;2022-08-24T13:47:46;5.73;;;1.80;;